FABL/BFN METAR and TAF weather

Enter ICAO airport designator
Station Type Date Time Source
FABL METAR 2020/09/23 00:00 UTC NOAA

FABL 230000Z AUTO 14004KT 9999 ///////// 08/05 Q1028


Station Type Date Time Source
FABL Decoded METAR 2020/09/23 00:00 UTC NOAA

Bloemfontein, Bloemfontein Airport, South Africa (FABL) 29-06S 026-18E 1400M
Sep 22, 2020 - 08:00 PM EDT / 2020.09.23 0000 UTC
Wind: from the SE (140 degrees) at 5 MPH (4 KT):0
Visibility: greater than 7 mile(s):0
Temperature: 46 F (8 C)
Dew Point: 41 F (5 C)
Relative Humidity: 81%
Pressure (altimeter): 30.36 in. Hg (1028 hPa)
ob: FABL 230000Z AUTO 14004KT 9999 ///////// 08/05 Q1028
cycle: 0

Station Type Date Time Source
FABL TAF 2020/09/22 18:08 UTC NOAA

TAF FABL 221600Z 2218/2318 07005KT CAVOK TX26/2313Z TN06/2304Z

Example: see airport list